sensor_id;sensor_type;location;lat;lon;timestamp;P1;durP1;ratioP1;P2;durP2;ratioP2
15246;SDS011;7726;48.820;9.248;2023-07-16T00:00:49;4.43;;;2.20;;
15246;SDS011;7726;48.820;9.248;2023-07-16T00:03:18;2.53;;;2.33;;
15246;SDS011;7726;48.820;9.248;2023-07-16T00:05:45;3.38;;;2.10;;
15246;SDS011;7726;48.820;9.248;2023-07-16T00:08:12;2.00;;;1.83;;
15246;SDS011;7726;48.820;9.248;2023-07-16T00:10:40;2.33;;;2.10;;
15246;SDS011;7726;48.820;9.248;2023-07-16T00:13:07;3.00;;;2.35;;
15246;SDS011;7726;48.820;9.248;2023-07-16T00:15:34;2.42;;;2.13;;
15246;SDS011;7726;48.820;9.248;2023-07-16T00:18:01;2.90;;;2.05;;
15246;SDS011;7726;48.820;9.248;2023-07-16T00:20:30;2.70;;;2.13;;
15246;SDS011;7726;48.820;9.248;2023-07-16T00:22:58;2.15;;;2.00;;
15246;SDS011;7726;48.820;9.248;2023-07-16T00:25:25;1.80;;;1.70;;
15246;SDS011;7726;48.820;9.248;2023-07-16T00:27:52;2.20;;;2.00;;
15246;SDS011;7726;48.820;9.248;2023-07-16T00:30:19;2.22;;;1.60;;
15246;SDS011;7726;48.820;9.248;2023-07-16T00:32:46;2.08;;;1.40;;
15246;SDS011;7726;48.820;9.248;2023-07-16T00:35:13;1.55;;;1.45;;
15246;SDS011;7726;48.820;9.248;2023-07-16T00:37:42;1.48;;;1.38;;
15246;SDS011;7726;48.820;9.248;2023-07-16T00:40:10;1.90;;;1.70;;
15246;SDS011;7726;48.820;9.248;2023-07-16T00:42:37;3.45;;;1.50;;
15246;SDS011;7726;48.820;9.248;2023-07-16T00:45:06;1.40;;;1.30;;
15246;SDS011;7726;48.820;9.248;2023-07-16T00:47:35;1.42;;;1.33;;
15246;SDS011;7726;48.820;9.248;2023-07-16T00:50:02;1.55;;;1.40;;
15246;SDS011;7726;48.820;9.248;2023-07-16T00:52:30;1.23;;;1.20;;
15246;SDS011;7726;48.820;9.248;2023-07-16T00:55:01;1.52;;;1.33;;
15246;SDS011;7726;48.820;9.248;2023-07-16T00:57:29;1.55;;;1.27;;
15246;SDS011;7726;48.820;9.248;2023-07-16T00:59:56;1.00;;;1.00;;
15246;SDS011;7726;48.820;9.248;2023-07-16T01:02:24;1.52;;;1.10;;
15246;SDS011;7726;48.820;9.248;2023-07-16T01:04:51;1.30;;;1.25;;
15246;SDS011;7726;48.820;9.248;2023-07-16T01:07:19;1.40;;;1.30;;
15246;SDS011;7726;48.820;9.248;2023-07-16T01:09:48;1.83;;;1.30;;
15246;SDS011;7726;48.820;9.248;2023-07-16T01:12:16;2.05;;;1.50;;
15246;SDS011;7726;48.820;9.248;2023-07-16T01:14:45;1.55;;;1.45;;
15246;SDS011;7726;48.820;9.248;2023-07-16T01:17:12;1.20;;;1.17;;
15246;SDS011;7726;48.820;9.248;2023-07-16T01:19:39;1.50;;;1.40;;
15246;SDS011;7726;48.820;9.248;2023-07-16T01:22:27;1.60;;;1.50;;
15246;SDS011;7726;48.820;9.248;2023-07-16T01:25:05;1.25;;;1.20;;
15246;SDS011;7726;48.820;9.248;2023-07-16T01:27:42;1.85;;;1.15;;
15246;SDS011;7726;48.820;9.248;2023-07-16T01:30:13;1.42;;;1.33;;
15246;SDS011;7726;48.820;9.248;2023-07-16T01:32:42;2.60;;;1.33;;
15246;SDS011;7726;48.820;9.248;2023-07-16T01:35:09;3.22;;;1.27;;
15246;SDS011;7726;48.820;9.248;2023-07-16T01:37:36;1.40;;;1.30;;
15246;SDS011;7726;48.820;9.248;2023-07-16T01:40:04;3.25;;;1.50;;
15246;SDS011;7726;48.820;9.248;2023-07-16T01:42:33;1.25;;;1.20;;
15246;SDS011;7726;48.820;9.248;2023-07-16T01:45:01;1.38;;;1.27;;
15246;SDS011;7726;48.820;9.248;2023-07-16T01:47:31;1.50;;;1.40;;
15246;SDS011;7726;48.820;9.248;2023-07-16T01:49:59;1.50;;;1.40;;
15246;SDS011;7726;48.820;9.248;2023-07-16T01:52:26;1.50;;;1.40;;
15246;SDS011;7726;48.820;9.248;2023-07-16T01:54:53;1.20;;;1.20;;
15246;SDS011;7726;48.820;9.248;2023-07-16T01:57:20;2.72;;;1.45;;
15246;SDS011;7726;48.820;9.248;2023-07-16T01:59:47;2.17;;;1.45;;
15246;SDS011;7726;48.820;9.248;2023-07-16T02:02:15;1.73;;;1.30;;
15246;SDS011;7726;48.820;9.248;2023-07-16T02:04:43;1.33;;;1.20;;
15246;SDS011;7726;48.820;9.248;2023-07-16T02:07:10;2.60;;;1.50;;
15246;SDS011;7726;48.820;9.248;2023-07-16T02:09:37;4.70;;;1.50;;
15246;SDS011;7726;48.820;9.248;2023-07-16T02:12:05;1.50;;;1.40;;
15246;SDS011;7726;48.820;9.248;2023-07-16T02:14:33;1.73;;;1.40;;
15246;SDS011;7726;48.820;9.248;2023-07-16T02:17:00;1.60;;;1.02;;
15246;SDS011;7726;48.820;9.248;2023-07-16T02:19:27;1.90;;;1.30;;
15246;SDS011;7726;48.820;9.248;2023-07-16T02:21:55;3.58;;;1.20;;
15246;SDS011;7726;48.820;9.248;2023-07-16T02:24:23;1.38;;;1.27;;
15246;SDS011;7726;48.820;9.248;2023-07-16T02:26:50;1.30;;;1.20;;
15246;SDS011;7726;48.820;9.248;2023-07-16T02:29:17;1.17;;;1.10;;
15246;SDS011;7726;48.820;9.248;2023-07-16T02:31:44;1.52;;;1.20;;
15246;SDS011;7726;48.820;9.248;2023-07-16T02:34:13;2.22;;;1.17;;
15246;SDS011;7726;48.820;9.248;2023-07-16T02:36:40;2.47;;;1.33;;
15246;SDS011;7726;48.820;9.248;2023-07-16T02:39:09;2.42;;;1.48;;
15246;SDS011;7726;48.820;9.248;2023-07-16T02:41:36;2.15;;;1.17;;
15246;SDS011;7726;48.820;9.248;2023-07-16T02:44:04;1.30;;;1.13;;
15246;SDS011;7726;48.820;9.248;2023-07-16T02:46:32;3.08;;;1.80;;
15246;SDS011;7726;48.820;9.248;2023-07-16T02:48:59;4.22;;;1.60;;
15246;SDS011;7726;48.820;9.248;2023-07-16T02:51:26;1.42;;;1.30;;
15246;SDS011;7726;48.820;9.248;2023-07-16T02:53:53;3.22;;;1.52;;
15246;SDS011;7726;48.820;9.248;2023-07-16T02:56:22;2.90;;;1.90;;
15246;SDS011;7726;48.820;9.248;2023-07-16T02:58:49;2.17;;;1.58;;
15246;SDS011;7726;48.820;9.248;2023-07-16T03:01:16;1.20;;;1.20;;
15246;SDS011;7726;48.820;9.248;2023-07-16T03:03:43;1.38;;;1.33;;
15246;SDS011;7726;48.820;9.248;2023-07-16T03:06:10;2.17;;;1.40;;
15246;SDS011;7726;48.820;9.248;2023-07-16T03:08:37;2.30;;;1.40;;
15246;SDS011;7726;48.820;9.248;2023-07-16T03:11:04;2.00;;;1.40;;
15246;SDS011;7726;48.820;9.248;2023-07-16T03:13:33;1.65;;;1.55;;
15246;SDS011;7726;48.820;9.248;2023-07-16T03:16:00;2.47;;;1.80;;
15246;SDS011;7726;48.820;9.248;2023-07-16T03:18:28;4.15;;;1.65;;
15246;SDS011;7726;48.820;9.248;2023-07-16T03:20:55;1.70;;;1.60;;
15246;SDS011;7726;48.820;9.248;2023-07-16T03:23:22;2.50;;;1.48;;
15246;SDS011;7726;48.820;9.248;2023-07-16T03:25:49;3.40;;;1.50;;
15246;SDS011;7726;48.820;9.248;2023-07-16T03:28:17;1.63;;;1.25;;
15246;SDS011;7726;48.820;9.248;2023-07-16T03:30:46;3.80;;;1.75;;
15246;SDS011;7726;48.820;9.248;2023-07-16T03:33:13;2.47;;;1.65;;
15246;SDS011;7726;48.820;9.248;2023-07-16T03:35:42;2.45;;;1.67;;
15246;SDS011;7726;48.820;9.248;2023-07-16T03:38:09;2.15;;;1.30;;
15246;SDS011;7726;48.820;9.248;2023-07-16T03:40:36;1.70;;;1.58;;
15246;SDS011;7726;48.820;9.248;2023-07-16T03:43:03;1.90;;;1.50;;
15246;SDS011;7726;48.820;9.248;2023-07-16T03:45:30;1.75;;;1.58;;
15246;SDS011;7726;48.820;9.248;2023-07-16T03:47:59;2.03;;;1.63;;
15246;SDS011;7726;48.820;9.248;2023-07-16T03:50:26;1.50;;;1.40;;
15246;SDS011;7726;48.820;9.248;2023-07-16T03:52:53;3.42;;;1.63;;
15246;SDS011;7726;48.820;9.248;2023-07-16T03:55:20;7.20;;;1.60;;
15246;SDS011;7726;48.820;9.248;2023-07-16T03:57:47;1.90;;;1.63;;
15246;SDS011;7726;48.820;9.248;2023-07-16T04:00:15;2.45;;;1.60;;
15246;SDS011;7726;48.820;9.248;2023-07-16T04:02:42;5.03;;;1.70;;
15246;SDS011;7726;48.820;9.248;2023-07-16T04:05:11;4.25;;;1.50;;
15246;SDS011;7726;48.820;9.248;2023-07-16T04:07:38;4.75;;;2.05;;
15246;SDS011;7726;48.820;9.248;2023-07-16T04:10:05;2.92;;;1.52;;
15246;SDS011;7726;48.820;9.248;2023-07-16T04:12:33;2.28;;;1.70;;
15246;SDS011;7726;48.820;9.248;2023-07-16T04:15:00;3.50;;;2.00;;
15246;SDS011;7726;48.820;9.248;2023-07-16T04:17:27;2.83;;;1.50;;
15246;SDS011;7726;48.820;9.248;2023-07-16T04:19:54;2.28;;;1.50;;
15246;SDS011;7726;48.820;9.248;2023-07-16T04:22:22;3.92;;;1.63;;
15246;SDS011;7726;48.820;9.248;2023-07-16T04:24:49;4.25;;;2.00;;
15246;SDS011;7726;48.820;9.248;2023-07-16T04:27:17;6.45;;;1.80;;
15246;SDS011;7726;48.820;9.248;2023-07-16T04:29:44;2.35;;;1.70;;
15246;SDS011;7726;48.820;9.248;2023-07-16T04:32:11;2.28;;;1.50;;
15246;SDS011;7726;48.820;9.248;2023-07-16T04:34:38;4.35;;;1.73;;
15246;SDS011;7726;48.820;9.248;2023-07-16T04:37:05;3.45;;;2.03;;
15246;SDS011;7726;48.820;9.248;2023-07-16T04:39:34;3.15;;;1.67;;
15246;SDS011;7726;48.820;9.248;2023-07-16T04:42:01;2.33;;;1.90;;
15246;SDS011;7726;48.820;9.248;2023-07-16T04:44:28;3.13;;;1.88;;
15246;SDS011;7726;48.820;9.248;2023-07-16T04:46:55;4.13;;;1.67;;
15246;SDS011;7726;48.820;9.248;2023-07-16T04:49:22;3.00;;;1.67;;
15246;SDS011;7726;48.820;9.248;2023-07-16T04:51:49;4.32;;;1.98;;
15246;SDS011;7726;48.820;9.248;2023-07-16T04:54:16;2.88;;;2.03;;
15246;SDS011;7726;48.820;9.248;2023-07-16T04:56:45;2.28;;;2.08;;
15246;SDS011;7726;48.820;9.248;2023-07-16T04:59:12;2.72;;;1.88;;
15246;SDS011;7726;48.820;9.248;2023-07-16T05:01:39;2.45;;;1.80;;
15246;SDS011;7726;48.820;9.248;2023-07-16T05:04:06;8.02;;;1.80;;
15246;SDS011;7726;48.820;9.248;2023-07-16T05:06:33;7.20;;;1.90;;
15246;SDS011;7726;48.820;9.248;2023-07-16T05:09:01;4.53;;;1.88;;
15246;SDS011;7726;48.820;9.248;2023-07-16T05:11:28;2.47;;;1.70;;
15246;SDS011;7726;48.820;9.248;2023-07-16T05:13:56;2.80;;;2.00;;
15246;SDS011;7726;48.820;9.248;2023-07-16T05:16:24;1.70;;;1.60;;
15246;SDS011;7726;48.820;9.248;2023-07-16T05:18:51;4.63;;;1.60;;
15246;SDS011;7726;48.820;9.248;2023-07-16T05:21:18;3.67;;;1.70;;
15246;SDS011;7726;48.820;9.248;2023-07-16T05:23:45;1.75;;;1.50;;
15246;SDS011;7726;48.820;9.248;2023-07-16T05:26:12;2.67;;;1.52;;
15246;SDS011;7726;48.820;9.248;2023-07-16T05:28:39;6.28;;;2.22;;
15246;SDS011;7726;48.820;9.248;2023-07-16T05:31:08;2.50;;;1.63;;
15246;SDS011;7726;48.820;9.248;2023-07-16T05:33:35;3.95;;;1.55;;
15246;SDS011;7726;48.820;9.248;2023-07-16T05:36:02;2.28;;;1.60;;
15246;SDS011;7726;48.820;9.248;2023-07-16T05:38:29;2.85;;;1.50;;
15246;SDS011;7726;48.820;9.248;2023-07-16T05:41:00;3.38;;;1.95;;
15246;SDS011;7726;48.820;9.248;2023-07-16T05:43:28;5.63;;;1.75;;
15246;SDS011;7726;48.820;9.248;2023-07-16T05:45:55;6.30;;;1.40;;
15246;SDS011;7726;48.820;9.248;2023-07-16T05:48:24;4.25;;;1.73;;
15246;SDS011;7726;48.820;9.248;2023-07-16T05:50:51;3.97;;;2.22;;
15246;SDS011;7726;48.820;9.248;2023-07-16T05:53:18;6.18;;;4.85;;
15246;SDS011;7726;48.820;9.248;2023-07-16T05:55:45;8.35;;;6.65;;
15246;SDS011;7726;48.820;9.248;2023-07-16T05:58:14;7.53;;;5.65;;
15246;SDS011;7726;48.820;9.248;2023-07-16T06:00:42;12.98;;;8.82;;
15246;SDS011;7726;48.820;9.248;2023-07-16T06:03:09;5.93;;;4.18;;
15246;SDS011;7726;48.820;9.248;2023-07-16T06:05:37;13.93;;;9.25;;
15246;SDS011;7726;48.820;9.248;2023-07-16T06:08:04;18.73;;;13.23;;
15246;SDS011;7726;48.820;9.248;2023-07-16T06:10:33;3.30;;;3.00;;
15246;SDS011;7726;48.820;9.248;2023-07-16T06:13:00;6.25;;;4.05;;
15246;SDS011;7726;48.820;9.248;2023-07-16T06:15:27;2.67;;;1.92;;
15246;SDS011;7726;48.820;9.248;2023-07-16T06:17:54;4.85;;;1.98;;
15246;SDS011;7726;48.820;9.248;2023-07-16T06:20:22;4.43;;;1.92;;
15246;SDS011;7726;48.820;9.248;2023-07-16T06:22:50;3.72;;;2.00;;
15246;SDS011;7726;48.820;9.248;2023-07-16T06:25:17;4.97;;;1.90;;
15246;SDS011;7726;48.820;9.248;2023-07-16T06:27:44;4.07;;;1.90;;
15246;SDS011;7726;48.820;9.248;2023-07-16T06:30:11;3.20;;;1.70;;
15246;SDS011;7726;48.820;9.248;2023-07-16T06:32:39;6.43;;;2.15;;
15246;SDS011;7726;48.820;9.248;2023-07-16T06:35:06;3.20;;;1.67;;
15246;SDS011;7726;48.820;9.248;2023-07-16T06:37:33;3.35;;;1.52;;
15246;SDS011;7726;48.820;9.248;2023-07-16T06:40:02;2.80;;;1.60;;
15246;SDS011;7726;48.820;9.248;2023-07-16T06:42:30;2.63;;;1.67;;
15246;SDS011;7726;48.820;9.248;2023-07-16T06:44:57;2.70;;;1.50;;
15246;SDS011;7726;48.820;9.248;2023-07-16T06:47:24;6.35;;;2.03;;
15246;SDS011;7726;48.820;9.248;2023-07-16T06:49:52;3.70;;;1.63;;
15246;SDS011;7726;48.820;9.248;2023-07-16T06:52:19;5.05;;;2.05;;
15246;SDS011;7726;48.820;9.248;2023-07-16T06:54:46;2.78;;;1.58;;
15246;SDS011;7726;48.820;9.248;2023-07-16T06:57:15;3.80;;;1.60;;
15246;SDS011;7726;48.820;9.248;2023-07-16T06:59:42;5.28;;;1.58;;
15246;SDS011;7726;48.820;9.248;2023-07-16T07:02:09;6.28;;;1.85;;
15246;SDS011;7726;48.820;9.248;2023-07-16T07:04:37;3.65;;;1.50;;
15246;SDS011;7726;48.820;9.248;2023-07-16T07:07:04;3.58;;;1.63;;
15246;SDS011;7726;48.820;9.248;2023-07-16T07:09:31;3.95;;;1.55;;
15246;SDS011;7726;48.820;9.248;2023-07-16T07:11:59;5.13;;;1.70;;
15246;SDS011;7726;48.820;9.248;2023-07-16T07:14:32;3.83;;;1.40;;
15246;SDS011;7726;48.820;9.248;2023-07-16T07:16:59;4.32;;;1.70;;
15246;SDS011;7726;48.820;9.248;2023-07-16T07:19:26;2.33;;;1.30;;
15246;SDS011;7726;48.820;9.248;2023-07-16T07:21:54;2.10;;;1.40;;
15246;SDS011;7726;48.820;9.248;2023-07-16T07:24:21;2.58;;;1.40;;
15246;SDS011;7726;48.820;9.248;2023-07-16T07:26:48;3.25;;;1.67;;
15246;SDS011;7726;48.820;9.248;2023-07-16T07:29:15;4.35;;;1.50;;
15246;SDS011;7726;48.820;9.248;2023-07-16T07:31:43;2.97;;;1.45;;
15246;SDS011;7726;48.820;9.248;2023-07-16T07:34:11;2.45;;;1.60;;
15246;SDS011;7726;48.820;9.248;2023-07-16T07:36:38;2.00;;;1.50;;
15246;SDS011;7726;48.820;9.248;2023-07-16T07:39:05;2.58;;;1.80;;
15246;SDS011;7726;48.820;9.248;2023-07-16T07:41:32;3.85;;;1.63;;
15246;SDS011;7726;48.820;9.248;2023-07-16T07:43:59;4.43;;;1.77;;
15246;SDS011;7726;48.820;9.248;2023-07-16T07:46:26;4.78;;;1.60;;
15246;SDS011;7726;48.820;9.248;2023-07-16T07:48:55;1.65;;;1.45;;
15246;SDS011;7726;48.820;9.248;2023-07-16T07:51:22;2.92;;;1.48;;
15246;SDS011;7726;48.820;9.248;2023-07-16T07:53:49;3.90;;;1.48;;
15246;SDS011;7726;48.820;9.248;2023-07-16T07:56:16;3.40;;;1.52;;
15246;SDS011;7726;48.820;9.248;2023-07-16T07:58:43;2.17;;;1.60;;
15246;SDS011;7726;48.820;9.248;2023-07-16T08:01:11;4.00;;;1.67;;
15246;SDS011;7726;48.820;9.248;2023-07-16T08:03:38;1.90;;;1.35;;
15246;SDS011;7726;48.820;9.248;2023-07-16T08:06:06;3.42;;;1.60;;
15246;SDS011;7726;48.820;9.248;2023-07-16T08:08:33;2.00;;;1.50;;
15246;SDS011;7726;48.820;9.248;2023-07-16T08:11:01;4.10;;;1.67;;
15246;SDS011;7726;48.820;9.248;2023-07-16T08:13:28;3.05;;;1.70;;
15246;SDS011;7726;48.820;9.248;2023-07-16T08:15:55;3.08;;;1.40;;
15246;SDS011;7726;48.820;9.248;2023-07-16T08:18:22;1.77;;;1.40;;
15246;SDS011;7726;48.820;9.248;2023-07-16T08:20:49;1.70;;;1.40;;
15246;SDS011;7726;48.820;9.248;2023-07-16T08:23:18;3.30;;;1.60;;
15246;SDS011;7726;48.820;9.248;2023-07-16T08:25:45;5.13;;;1.45;;
15246;SDS011;7726;48.820;9.248;2023-07-16T08:28:12;1.60;;;1.40;;
15246;SDS011;7726;48.820;9.248;2023-07-16T08:30:40;2.78;;;1.40;;
15246;SDS011;7726;48.820;9.248;2023-07-16T08:33:07;2.38;;;1.23;;
15246;SDS011;7726;48.820;9.248;2023-07-16T08:35:34;2.47;;;1.52;;
15246;SDS011;7726;48.820;9.248;2023-07-16T08:38:02;2.25;;;1.63;;
15246;SDS011;7726;48.820;9.248;2023-07-16T08:40:30;2.78;;;1.65;;
15246;SDS011;7726;48.820;9.248;2023-07-16T08:42:57;3.08;;;1.50;;
15246;SDS011;7726;48.820;9.248;2023-07-16T08:45:25;3.25;;;1.58;;
15246;SDS011;7726;48.820;9.248;2023-07-16T08:47:54;2.58;;;1.33;;
15246;SDS011;7726;48.820;9.248;2023-07-16T08:50:22;3.42;;;1.70;;
15246;SDS011;7726;48.820;9.248;2023-07-16T08:52:49;1.95;;;1.42;;
15246;SDS011;7726;48.820;9.248;2023-07-16T08:55:16;3.20;;;1.40;;
15246;SDS011;7726;48.820;9.248;2023-07-16T08:57:45;1.42;;;1.20;;
15246;SDS011;7726;48.820;9.248;2023-07-16T09:00:13;2.80;;;1.60;;
15246;SDS011;7726;48.820;9.248;2023-07-16T09:02:41;2.42;;;1.30;;
15246;SDS011;7726;48.820;9.248;2023-07-16T09:05:08;1.55;;;1.40;;
15246;SDS011;7726;48.820;9.248;2023-07-16T09:07:36;3.70;;;1.52;;
15246;SDS011;7726;48.820;9.248;2023-07-16T09:10:03;3.50;;;1.55;;
15246;SDS011;7726;48.820;9.248;2023-07-16T09:12:31;2.78;;;1.52;;
15246;SDS011;7726;48.820;9.248;2023-07-16T09:14:59;1.63;;;1.48;;
15246;SDS011;7726;48.820;9.248;2023-07-16T09:17:26;3.22;;;1.33;;
15246;SDS011;7726;48.820;9.248;2023-07-16T09:19:53;1.65;;;1.23;;
15246;SDS011;7726;48.820;9.248;2023-07-16T09:22:22;1.38;;;1.27;;
15246;SDS011;7726;48.820;9.248;2023-07-16T09:24:49;1.95;;;1.55;;
15246;SDS011;7726;48.820;9.248;2023-07-16T09:27:16;2.00;;;1.40;;
15246;SDS011;7726;48.820;9.248;2023-07-16T09:29:43;3.55;;;1.60;;
15246;SDS011;7726;48.820;9.248;2023-07-16T09:32:12;2.83;;;1.40;;
15246;SDS011;7726;48.820;9.248;2023-07-16T09:34:39;3.17;;;1.60;;
15246;SDS011;7726;48.820;9.248;2023-07-16T09:37:06;3.05;;;1.70;;
15246;SDS011;7726;48.820;9.248;2023-07-16T09:39:34;1.50;;;1.40;;
15246;SDS011;7726;48.820;9.248;2023-07-16T09:42:02;2.22;;;1.42;;
15246;SDS011;7726;48.820;9.248;2023-07-16T09:44:29;2.63;;;1.40;;
15246;SDS011;7726;48.820;9.248;2023-07-16T09:46:57;2.47;;;1.73;;
15246;SDS011;7726;48.820;9.248;2023-07-16T09:49:25;1.55;;;1.45;;
15246;SDS011;7726;48.820;9.248;2023-07-16T09:51:55;3.10;;;1.90;;
15246;SDS011;7726;48.820;9.248;2023-07-16T09:54:24;3.20;;;1.48;;
15246;SDS011;7726;48.820;9.248;2023-07-16T09:56:54;2.72;;;1.40;;
15246;SDS011;7726;48.820;9.248;2023-07-16T09:59:23;1.73;;;1.50;;
15246;SDS011;7726;48.820;9.248;2023-07-16T10:01:51;2.58;;;1.67;;
15246;SDS011;7726;48.820;9.248;2023-07-16T10:04:20;1.58;;;1.48;;
15246;SDS011;7726;48.820;9.248;2023-07-16T10:06:52;3.17;;;1.52;;
15246;SDS011;7726;48.820;9.248;2023-07-16T10:09:32;2.15;;;1.60;;
15246;SDS011;7726;48.820;9.248;2023-07-16T10:12:12;3.10;;;1.60;;
15246;SDS011;7726;48.820;9.248;2023-07-16T10:14:40;2.25;;;1.45;;
15246;SDS011;7726;48.820;9.248;2023-07-16T10:17:07;3.33;;;1.50;;
15246;SDS011;7726;48.820;9.248;2023-07-16T10:19:45;2.15;;;1.60;;
15246;SDS011;7726;48.820;9.248;2023-07-16T10:22:14;2.15;;;1.60;;
15246;SDS011;7726;48.820;9.248;2023-07-16T10:24:41;1.60;;;1.42;;
15246;SDS011;7726;48.820;9.248;2023-07-16T10:27:08;2.03;;;1.60;;
15246;SDS011;7726;48.820;9.248;2023-07-16T10:29:35;1.95;;;1.30;;
15246;SDS011;7726;48.820;9.248;2023-07-16T10:32:03;2.70;;;1.70;;
15246;SDS011;7726;48.820;9.248;2023-07-16T10:34:32;3.15;;;1.80;;
15246;SDS011;7726;48.820;9.248;2023-07-16T10:37:01;4.15;;;1.70;;
15246;SDS011;7726;48.820;9.248;2023-07-16T10:39:30;2.03;;;1.65;;
15246;SDS011;7726;48.820;9.248;2023-07-16T10:41:57;2.45;;;1.52;;
15246;SDS011;7726;48.820;9.248;2023-07-16T10:44:24;5.05;;;1.80;;
15246;SDS011;7726;48.820;9.248;2023-07-16T10:46:52;3.60;;;1.50;;
15246;SDS011;7726;48.820;9.248;2023-07-16T10:49:26;3.47;;;1.85;;
15246;SDS011;7726;48.820;9.248;2023-07-16T10:51:54;3.53;;;1.75;;
15246;SDS011;7726;48.820;9.248;2023-07-16T10:54:21;1.60;;;1.45;;
15246;SDS011;7726;48.820;9.248;2023-07-16T10:56:50;2.40;;;1.70;;
15246;SDS011;7726;48.820;9.248;2023-07-16T10:59:17;1.77;;;1.40;;
15246;SDS011;7726;48.820;9.248;2023-07-16T11:01:45;1.73;;;1.20;;
15246;SDS011;7726;48.820;9.248;2023-07-16T11:04:12;2.90;;;1.50;;
15246;SDS011;7726;48.820;9.248;2023-07-16T11:06:39;3.20;;;1.60;;
15246;SDS011;7726;48.820;9.248;2023-07-16T11:09:07;3.45;;;2.22;;
15246;SDS011;7726;48.820;9.248;2023-07-16T11:11:33;5.05;;;1.58;;
15246;SDS011;7726;48.820;9.248;2023-07-16T11:14:04;2.83;;;1.52;;
15246;SDS011;7726;48.820;9.248;2023-07-16T11:16:32;4.00;;;1.85;;
15246;SDS011;7726;48.820;9.248;2023-07-16T11:19:01;4.18;;;1.80;;
15246;SDS011;7726;48.820;9.248;2023-07-16T11:21:28;2.50;;;1.60;;
15246;SDS011;7726;48.820;9.248;2023-07-16T11:23:55;2.17;;;1.77;;
15246;SDS011;7726;48.820;9.248;2023-07-16T11:26:22;1.83;;;1.60;;
15246;SDS011;7726;48.820;9.248;2023-07-16T11:28:49;1.77;;;1.45;;
15246;SDS011;7726;48.820;9.248;2023-07-16T11:31:19;2.55;;;1.58;;
15246;SDS011;7726;48.820;9.248;2023-07-16T11:33:46;1.77;;;1.63;;
15246;SDS011;7726;48.820;9.248;2023-07-16T11:36:13;2.38;;;1.60;;
15246;SDS011;7726;48.820;9.248;2023-07-16T11:38:40;4.20;;;1.58;;
15246;SDS011;7726;48.820;9.248;2023-07-16T11:41:07;3.10;;;1.50;;
15246;SDS011;7726;48.820;9.248;2023-07-16T11:43:35;3.70;;;1.98;;
15246;SDS011;7726;48.820;9.248;2023-07-16T11:46:02;1.95;;;1.40;;
15246;SDS011;7726;48.820;9.248;2023-07-16T11:48:30;2.28;;;1.80;;
15246;SDS011;7726;48.820;9.248;2023-07-16T11:50:58;4.03;;;1.52;;
15246;SDS011;7726;48.820;9.248;2023-07-16T11:53:25;3.92;;;1.85;;
15246;SDS011;7726;48.820;9.248;2023-07-16T11:55:52;2.20;;;1.60;;
15246;SDS011;7726;48.820;9.248;2023-07-16T11:58:19;2.35;;;1.88;;
15246;SDS011;7726;48.820;9.248;2023-07-16T12:00:47;4.18;;;1.67;;
15246;SDS011;7726;48.820;9.248;2023-07-16T12:03:16;2.88;;;1.60;;
15246;SDS011;7726;48.820;9.248;2023-07-16T12:05:44;2.25;;;1.77;;
15246;SDS011;7726;48.820;9.248;2023-07-16T12:08:11;1.80;;;1.70;;
15246;SDS011;7726;48.820;9.248;2023-07-16T12:10:39;2.22;;;1.58;;
15246;SDS011;7726;48.820;9.248;2023-07-16T12:13:07;2.65;;;1.88;;
15246;SDS011;7726;48.820;9.248;2023-07-16T12:15:34;3.85;;;1.98;;
15246;SDS011;7726;48.820;9.248;2023-07-16T12:18:01;2.78;;;1.80;;
15246;SDS011;7726;48.820;9.248;2023-07-16T12:20:28;3.25;;;2.10;;
15246;SDS011;7726;48.820;9.248;2023-07-16T12:22:56;2.72;;;1.80;;
15246;SDS011;7726;48.820;9.248;2023-07-16T12:25:24;1.90;;;1.40;;
15246;SDS011;7726;48.820;9.248;2023-07-16T12:27:51;3.20;;;1.98;;
15246;SDS011;7726;48.820;9.248;2023-07-16T12:30:18;3.17;;;1.98;;
15246;SDS011;7726;48.820;9.248;2023-07-16T12:32:45;1.75;;;1.50;;
15246;SDS011;7726;48.820;9.248;2023-07-16T12:35:13;1.80;;;1.70;;
15246;SDS011;7726;48.820;9.248;2023-07-16T12:37:40;1.70;;;1.60;;
15246;SDS011;7726;48.820;9.248;2023-07-16T12:40:09;2.38;;;2.17;;
15246;SDS011;7726;48.820;9.248;2023-07-16T12:42:36;1.85;;;1.67;;
15246;SDS011;7726;48.820;9.248;2023-07-16T12:45:04;2.30;;;1.77;;
15246;SDS011;7726;48.820;9.248;2023-07-16T12:47:31;2.90;;;1.70;;
15246;SDS011;7726;48.820;9.248;2023-07-16T12:49:58;1.98;;;1.63;;
15246;SDS011;7726;48.820;9.248;2023-07-16T12:52:26;3.10;;;1.60;;
15246;SDS011;7726;48.820;9.248;2023-07-16T12:54:53;2.30;;;2.10;;
15246;SDS011;7726;48.820;9.248;2023-07-16T12:57:21;1.95;;;1.65;;
15246;SDS011;7726;48.820;9.248;2023-07-16T12:59:48;2.08;;;1.73;;
15246;SDS011;7726;48.820;9.248;2023-07-16T13:02:15;1.92;;;1.67;;
15246;SDS011;7726;48.820;9.248;2023-07-16T13:04:43;2.05;;;1.60;;
15246;SDS011;7726;48.820;9.248;2023-07-16T13:07:10;2.10;;;1.60;;
15246;SDS011;7726;48.820;9.248;2023-07-16T13:09:38;2.67;;;2.10;;
15246;SDS011;7726;48.820;9.248;2023-07-16T13:12:05;2.72;;;2.08;;
15246;SDS011;7726;48.820;9.248;2023-07-16T13:14:34;1.98;;;1.70;;
15246;SDS011;7726;48.820;9.248;2023-07-16T13:17:01;3.15;;;1.80;;
15246;SDS011;7726;48.820;9.248;2023-07-16T13:19:29;4.50;;;1.60;;
15246;SDS011;7726;48.820;9.248;2023-07-16T13:21:56;2.60;;;1.90;;
15246;SDS011;7726;48.820;9.248;2023-07-16T13:24:23;3.03;;;1.95;;
15246;SDS011;7726;48.820;9.248;2023-07-16T13:26:51;2.03;;;1.42;;
15246;SDS011;7726;48.820;9.248;2023-07-16T13:29:18;3.22;;;1.75;;
15246;SDS011;7726;48.820;9.248;2023-07-16T13:31:47;1.80;;;1.70;;
15246;SDS011;7726;48.820;9.248;2023-07-16T13:34:14;2.63;;;1.88;;
15246;SDS011;7726;48.820;9.248;2023-07-16T13:36:41;3.40;;;1.77;;
15246;SDS011;7726;48.820;9.248;2023-07-16T13:39:08;2.17;;;1.88;;
15246;SDS011;7726;48.820;9.248;2023-07-16T13:41:38;2.67;;;1.75;;
15246;SDS011;7726;48.820;9.248;2023-07-16T13:44:05;5.25;;;2.17;;
15246;SDS011;7726;48.820;9.248;2023-07-16T13:46:32;1.95;;;1.83;;
15246;SDS011;7726;48.820;9.248;2023-07-16T13:49:01;2.10;;;1.60;;
15246;SDS011;7726;48.820;9.248;2023-07-16T13:51:28;2.45;;;2.03;;
15246;SDS011;7726;48.820;9.248;2023-07-16T13:53:55;2.05;;;1.73;;
15246;SDS011;7726;48.820;9.248;2023-07-16T13:56:22;3.03;;;1.98;;
15246;SDS011;7726;48.820;9.248;2023-07-16T13:58:49;2.08;;;1.70;;
15246;SDS011;7726;48.820;9.248;2023-07-16T14:01:16;1.60;;;1.50;;
15246;SDS011;7726;48.820;9.248;2023-07-16T14:03:43;1.85;;;1.73;;
15246;SDS011;7726;48.820;9.248;2023-07-16T14:06:12;2.45;;;1.90;;
15246;SDS011;7726;48.820;9.248;2023-07-16T14:08:39;1.55;;;1.45;;
15246;SDS011;7726;48.820;9.248;2023-07-16T14:11:06;1.75;;;1.63;;
15246;SDS011;7726;48.820;9.248;2023-07-16T14:13:33;2.70;;;1.75;;
15246;SDS011;7726;48.820;9.248;2023-07-16T14:16:01;2.08;;;1.88;;
15246;SDS011;7726;48.820;9.248;2023-07-16T14:18:28;2.10;;;1.70;;
15246;SDS011;7726;48.820;9.248;2023-07-16T14:20:55;1.83;;;1.52;;
15246;SDS011;7726;48.820;9.248;2023-07-16T14:23:24;3.30;;;1.80;;
15246;SDS011;7726;48.820;9.248;2023-07-16T14:25:51;1.77;;;1.65;;
15246;SDS011;7726;48.820;9.248;2023-07-16T14:28:18;1.90;;;1.73;;
15246;SDS011;7726;48.820;9.248;2023-07-16T14:30:45;2.22;;;2.03;;
15246;SDS011;7726;48.820;9.248;2023-07-16T14:33:12;1.45;;;1.35;;
15246;SDS011;7726;48.820;9.248;2023-07-16T14:35:39;4.68;;;1.65;;
15246;SDS011;7726;48.820;9.248;2023-07-16T14:38:06;1.90;;;1.80;;
15246;SDS011;7726;48.820;9.248;2023-07-16T14:40:35;2.22;;;2.00;;
15246;SDS011;7726;48.820;9.248;2023-07-16T14:43:03;2.20;;;1.95;;
15246;SDS011;7726;48.820;9.248;2023-07-16T14:45:30;2.22;;;1.85;;
15246;SDS011;7726;48.820;9.248;2023-07-16T14:47:58;2.38;;;1.83;;
15246;SDS011;7726;48.820;9.248;2023-07-16T14:50:25;2.17;;;1.67;;
15246;SDS011;7726;48.820;9.248;2023-07-16T14:52:53;2.05;;;1.77;;
15246;SDS011;7726;48.820;9.248;2023-07-16T14:55:20;1.77;;;1.67;;
15246;SDS011;7726;48.820;9.248;2023-07-16T14:57:49;1.90;;;1.70;;
15246;SDS011;7726;48.820;9.248;2023-07-16T15:00:16;2.85;;;1.77;;
15246;SDS011;7726;48.820;9.248;2023-07-16T15:02:43;1.88;;;1.77;;